Time;durP1;ratioP1;P1;durP2;ratioP2;P2;SDS_P1;SDS_P2;PMS_P1;PMS_P2;Temp;Humidity;BMP_temperature;BMP_pressure;BME280_temperature;BME280_humidity;BME280_pressure;Samples;Min_cycle;Max_cycle;Signal;HPM_P1;HPM_P2
2022/02/12 00:00:39;;;;;;;;;;;;;;;-3.16;100.00;103009.22;2566722;30;137790;-41
2022/02/12 00:03:07;;;;;;;;;;;;;;;-3.17;100.00;103002.16;2568531;30;136995;-41
2022/02/12 00:05:35;;;;;;;;;;;;;;;-3.20;100.00;103002.25;2568817;30;136731;-41
2022/02/12 00:08:03;;;;;;;;;;;;;;;-3.21;100.00;103003.19;2568437;30;137296;-41
2022/02/12 00:10:31;;;;;;;;;;;;;;;-3.25;100.00;103004.28;2566998;30;139372;-41
2022/02/12 00:12:59;;;;;;;;;;;;;;;-3.30;100.00;103003.63;2567966;30;137020;-41
2022/02/12 00:15:27;;;;;;;;;;;;;;;-3.33;100.00;103005.47;2568505;30;138497;-41
2022/02/12 00:17:57;;;;;;;;;;;;;;;-3.31;100.00;103005.44;2569401;30;137715;-41
2022/02/12 00:20:24;;;;;;;;;;;;;;;-3.30;100.00;103000.94;2565574;30;138994;-41
2022/02/12 00:22:52;;;;;;;;;;;;;;;-3.34;100.00;102985.06;2569869;30;136822;-41
2022/02/12 00:25:20;;;;;;;;;;;;;;;-3.37;100.00;102993.22;2570040;30;137154;-41
2022/02/12 00:27:48;;;;;;;;;;;;;;;-3.38;100.00;102993.25;2567891;30;137419;-41
2022/02/12 00:30:16;;;;;;;;;;;;;;;-3.43;100.00;102993.50;2569067;30;138271;-41
2022/02/12 00:32:43;;;;;;;;;;;;;;;-3.47;100.00;102991.84;2569601;30;137873;-41
2022/02/12 00:35:11;;;;;;;;;;;;;;;-3.52;100.00;102989.41;2568615;30;138374;-41
2022/02/12 00:37:39;;;;;;;;;;;;;;;-3.50;100.00;102981.31;2567384;30;136670;-41
2022/02/12 00:40:07;;;;;;;;;;;;;;;-3.52;100.00;102981.41;2568408;30;138332;-41
2022/02/12 00:42:35;;;;;;;;;;;;;;;-3.53;100.00;102984.13;2569862;30;137035;-41
2022/02/12 00:45:05;;;;;;;;;;;;;;;-3.53;100.00;102984.13;2568606;30;139213;-41
2022/02/12 00:47:34;;;;;;;;;;;;;;;-3.52;100.00;102977.84;2567573;30;136977;-41
2022/02/12 00:50:02;;;;;;;;;;;;;;;-3.56;100.00;102979.81;2567645;30;138567;-41
2022/02/12 00:52:30;;;;;;;;;;;;;;;-3.57;100.00;102985.19;2568412;30;137130;-41
2022/02/12 00:54:58;;;;;;;;;;;;;;;-3.58;100.00;102980.78;2567133;30;138666;-41
2022/02/12 00:57:26;;;;;;;;;;;;;;;-3.59;100.00;102981.72;2568740;30;138016;-42
2022/02/12 00:59:54;;;;;;;;;;;;;;;-3.61;100.00;102988.00;2569161;30;139352;-41
2022/02/12 01:02:22;;;;;;;;;;;;;;;-3.64;100.00;102979.25;2569175;30;137198;-41
2022/02/12 01:04:53;;;;;;;;;;;;;;;-3.67;100.00;102977.59;2568375;30;138438;-41
2022/02/12 01:07:21;;;;;;;;;;;;;;;-3.66;100.00;102978.44;2569066;30;137215;-41
2022/02/12 01:09:50;;;;;;;;;;;;;;;-3.66;100.00;102982.00;2568426;30;137294;-41
2022/02/12 01:12:17;;;;;;;;;;;;;;;-3.68;100.00;102980.31;2569606;30;136953;-41
2022/02/12 01:14:45;;;;;;;;;;;;;;;-3.73;100.00;102971.66;2567459;30;137967;-41
2022/02/12 01:17:17;;;;;;;;;;;;;;;-3.77;100.00;102985.13;2567525;30;136938;-41
2022/02/12 01:19:49;;;;;;;;;;;;;;;-3.81;100.00;102980.88;2568887;30;138410;-41
2022/02/12 01:22:17;;;;;;;;;;;;;;;-3.85;100.00;102983.72;2569349;30;136888;-41
2022/02/12 01:24:44;;;;;;;;;;;;;;;-3.86;100.00;102974.81;2566167;30;138565;-41
2022/02/12 01:27:12;;;;;;;;;;;;;;;-3.87;100.00;102983.75;2568001;30;137166;-40
2022/02/12 01:29:41;;;;;;;;;;;;;;;-3.86;100.00;102965.97;2567131;30;138273;-41
2022/02/12 01:32:09;;;;;;;;;;;;;;;-3.89;100.00;102964.28;2568602;30;136960;-41
2022/02/12 01:34:37;;;;;;;;;;;;;;;-3.90;100.00;102960.78;2568577;30;137188;-41
2022/02/12 01:37:06;;;;;;;;;;;;;;;-3.92;100.00;102965.31;2566022;30;137167;-41
2022/02/12 01:39:36;;;;;;;;;;;;;;;-3.90;100.00;102965.22;2569753;30;139259;-41
2022/02/12 01:42:04;;;;;;;;;;;;;;;-3.86;100.00;102961.50;2567218;30;137317;-41
2022/02/12 01:44:34;;;;;;;;;;;;;;;-3.80;100.00;102957.69;2566023;30;139595;-36
2022/02/12 01:47:03;;;;;;;;;;;;;;;-3.85;100.00;102951.69;2569823;30;137214;-36
2022/02/12 01:49:31;;;;;;;;;;;;;;;-3.81;100.00;102947.97;2565479;30;137831;-36
2022/02/12 01:52:00;;;;;;;;;;;;;;;-3.78;100.00;102950.50;2566127;30;138142;-36
2022/02/12 01:54:31;;;;;;;;;;;;;;;-3.76;100.00;102943.28;2568900;30;137462;-36
2022/02/12 01:57:01;;;;;;;;;;;;;;;-3.76;100.00;102945.97;2568429;30;137846;-36
2022/02/12 01:59:29;;;;;;;;;;;;;;;-3.77;100.00;102945.09;2569195;30;136963;-36
2022/02/12 02:01:57;;;;;;;;;;;;;;;-3.81;100.00;102943.50;2566007;30;137334;-36
2022/02/12 02:04:28;;;;;;;;;;;;;;;-3.79;100.00;102936.31;2567516;30;139513;-36
2022/02/12 02:06:56;;;;;;;;;;;;;;;-3.80;100.00;102939.03;2567691;30;137941;-36
2022/02/12 02:09:24;;;;;;;;;;;;;;;-3.80;100.00;102931.03;2568269;30;138347;-36
2022/02/12 02:11:51;;;;;;;;;;;;;;;-3.77;100.00;102937.09;2566064;30;137128;-36
2022/02/12 02:14:19;;;;;;;;;;;;;;;-3.79;100.00;102924.75;2568409;30;137784;-36
2022/02/12 02:16:47;;;;;;;;;;;;;;;-3.77;100.00;102925.56;2568718;30;137744;-36
2022/02/12 02:19:15;;;;;;;;;;;;;;;-3.78;100.00;102930.03;2568045;30;138159;-36
2022/02/12 02:21:43;;;;;;;;;;;;;;;-3.74;100.00;102917.41;2567957;30;137247;-36
2022/02/12 02:24:17;;;;;;;;;;;;;;;-3.72;100.00;102917.34;2568827;30;137384;-36
2022/02/12 02:26:45;;;;;;;;;;;;;;;-3.81;100.00;102913.28;2568523;30;137076;-36
2022/02/12 02:29:13;;;;;;;;;;;;;;;-3.81;100.00;102913.28;2569030;30;138279;-36
2022/02/12 02:31:41;;;;;;;;;;;;;;;-3.78;100.00;102914.03;2566395;30;136825;-36
2022/02/12 02:34:09;;;;;;;;;;;;;;;-3.80;100.00;102910.56;2567861;30;137447;-36
2022/02/12 02:36:37;;;;;;;;;;;;;;;-3.81;100.00;102910.63;2568029;30;137457;-36
2022/02/12 02:39:05;;;;;;;;;;;;;;;-3.75;100.00;102913.00;2568980;30;138345;-36
2022/02/12 02:41:33;;;;;;;;;;;;;;;-3.71;100.00;102913.75;2568067;30;137069;-36
2022/02/12 02:44:01;;;;;;;;;;;;;;;-3.74;100.00;102912.06;2568085;30;138634;-36
2022/02/12 02:46:29;;;;;;;;;;;;;;;-3.73;100.00;102908.47;2568474;30;137126;-36
2022/02/12 02:48:57;;;;;;;;;;;;;;;-3.68;100.00;102918.94;2568468;30;138270;-36
2022/02/12 02:56:58;;;;;;;;;;;;;;;-3.71;100.00;102903.06;2567384;30;137298;-36
2022/02/12 02:59:26;;;;;;;;;;;;;;;-3.73;100.00;102900.47;2568711;30;138542;-36
2022/02/12 03:01:53;;;;;;;;;;;;;;;-3.76;100.00;102897.94;2568106;30;137080;-36
2022/02/12 03:04:21;;;;;;;;;;;;;;;-3.74;100.00;102901.41;2566123;30;138507;-36
2022/02/12 03:06:49;;;;;;;;;;;;;;;-3.77;100.00;102891.75;2567642;30;138103;-36
2022/02/12 03:09:17;;;;;;;;;;;;;;;-3.76;100.00;102887.25;2567693;30;138476;-36
2022/02/12 03:11:45;;;;;;;;;;;;;;;-3.67;100.00;102876.19;2568461;30;137346;-36
2022/02/12 03:14:13;;;;;;;;;;;;;;;-3.69;100.00;102878.06;2569700;30;138361;-36
2022/02/12 03:16:41;;;;;;;;;;;;;;;-3.66;100.00;102872.59;2568552;30;137067;-36
2022/02/12 03:19:08;;;;;;;;;;;;;;;-3.66;100.00;102880.59;2568835;30;137386;-36
2022/02/12 03:21:36;;;;;;;;;;;;;;;-3.62;100.00;102875.97;2568645;30;137135;-36
2022/02/12 03:24:04;;;;;;;;;;;;;;;-3.58;100.00;102876.72;2568146;30;138449;-36
2022/02/12 03:26:32;;;;;;;;;;;;;;;-3.57;100.00;102867.78;2569981;30;137419;-36
2022/02/12 03:28:59;;;;;;;;;;;;;;;-3.52;100.00;102868.44;2567493;30;138315;-36
2022/02/12 03:31:27;;;;;;;;;;;;;;;-3.54;100.00;102872.97;2568416;30;138151;-36
2022/02/12 03:33:56;;;;;;;;;;;;;;;-3.48;100.00;102868.22;2569281;30;139118;-36
2022/02/12 03:36:24;;;;;;;;;;;;;;;-3.50;100.00;102869.22;2565883;30;137663;-36
2022/02/12 03:38:51;;;;;;;;;;;;;;;-3.52;100.00;102869.31;2569336;30;137166;-36
2022/02/12 03:41:19;;;;;;;;;;;;;;;-3.52;100.00;102868.44;2568657;30;138231;-36
2022/02/12 03:43:47;;;;;;;;;;;;;;;-3.49;100.00;102869.16;2565526;30;139094;-36
2022/02/12 03:46:15;;;;;;;;;;;;;;;-3.47;100.00;102866.41;2568363;30;137446;-36
2022/02/12 03:48:43;;;;;;;;;;;;;;;-3.40;100.00;102862.53;2569208;30;138281;-36
2022/02/12 03:51:11;;;;;;;;;;;;;;;-3.42;100.00;102856.41;2568512;30;137342;-36
2022/02/12 03:53:39;;;;;;;;;;;;;;;-3.39;100.00;102856.25;2569108;30;138436;-36
2022/02/12 03:56:06;;;;;;;;;;;;;;;-3.44;100.00;102855.63;2566735;30;137895;-36
2022/02/12 03:58:34;;;;;;;;;;;;;;;-3.41;100.00;102860.81;2568229;30;139135;-36
2022/02/12 04:01:02;;;;;;;;;;;;;;;-3.42;100.00;102852.84;2568056;30;138954;-36
2022/02/12 04:03:30;;;;;;;;;;;;;;;-3.39;100.00;102850.94;2568854;30;137375;-36
2022/02/12 04:05:58;;;;;;;;;;;;;;;-3.38;100.00;102849.97;2565558;30;137173;-36
2022/02/12 04:08:26;;;;;;;;;;;;;;;-3.39;100.00;102852.72;2569178;30;138046;-36
2022/02/12 04:10:54;;;;;;;;;;;;;;;-3.40;100.00;102846.53;2568585;30;136890;-36
2022/02/12 04:13:22;;;;;;;;;;;;;;;-3.41;100.00;102836.78;2567810;30;137633;-36
2022/02/12 04:15:49;;;;;;;;;;;;;;;-3.38;100.00;102839.31;2566924;30;137056;-36
2022/02/12 04:18:17;;;;;;;;;;;;;;;-3.36;100.00;102836.53;2567849;30;139113;-36
2022/02/12 04:20:45;;;;;;;;;;;;;;;-3.38;100.00;102830.41;2567336;30;137133;-36
2022/02/12 04:23:13;;;;;;;;;;;;;;;-3.40;100.00;102827.84;2567041;30;138381;-36
2022/02/12 04:25:40;;;;;;;;;;;;;;;-3.40;100.00;102830.50;2567481;30;136652;-36
2022/02/12 04:28:09;;;;;;;;;;;;;;;-3.41;100.00;102831.44;2568700;30;138457;-36
2022/02/12 04:30:38;;;;;;;;;;;;;;;-3.36;100.00;102836.53;2568095;30;136798;-36
2022/02/12 04:33:06;;;;;;;;;;;;;;;-3.34;100.00;102830.22;2567863;30;137921;-36
2022/02/12 04:35:34;;;;;;;;;;;;;;;-3.36;100.00;102825.88;2568682;30;136914;-36
2022/02/12 04:38:02;;;;;;;;;;;;;;;-3.33;100.00;102828.38;2569251;30;138652;-36
2022/02/12 04:40:31;;;;;;;;;;;;;;;-3.37;100.00;102813.47;2569947;30;137392;-36
2022/02/12 04:42:59;;;;;;;;;;;;;;;-3.39;100.00;102805.53;2566791;30;139416;-36
2022/02/12 04:45:26;;;;;;;;;;;;;;;-3.35;100.00;102809.78;2569541;30;136897;-36
2022/02/12 04:47:54;;;;;;;;;;;;;;;-3.35;100.00;102808.91;2567689;30;137248;-36
2022/02/12 04:50:22;;;;;;;;;;;;;;;-3.36;100.00;102807.19;2568323;30;137886;-36
2022/02/12 04:52:50;;;;;;;;;;;;;;;-3.35;100.00;102812.47;2568813;30;138236;-36
2022/02/12 04:55:18;;;;;;;;;;;;;;;-3.32;100.00;102809.66;2568540;30;136820;-36
2022/02/12 04:57:45;;;;;;;;;;;;;;;-3.33;100.00;102818.59;2567514;30;139072;-36
2022/02/12 05:00:13;;;;;;;;;;;;;;;-3.37;100.00;102809.00;2568240;30;137050;-36
2022/02/12 05:02:41;;;;;;;;;;;;;;;-3.39;100.00;102808.22;2568326;30;139249;-36
2022/02/12 05:05:09;;;;;;;;;;;;;;;-3.43;100.00;102811.97;2569210;30;137165;-36
2022/02/12 05:07:37;;;;;;;;;;;;;;;-3.44;100.00;102812.91;2568639;30;138016;-36
2022/02/12 05:10:05;;;;;;;;;;;;;;;-3.48;100.00;102816.63;2568421;30;137258;-36
2022/02/12 05:12:33;;;;;;;;;;;;;;;-3.50;100.00;102814.03;2566719;30;139380;-36
2022/02/12 05:15:01;;;;;;;;;;;;;;;-3.52;100.00;102809.72;2568506;30;137377;-36
2022/02/12 05:17:29;;;;;;;;;;;;;;;-3.51;100.00;102798.09;2568114;30;138921;-36
2022/02/12 05:19:56;;;;;;;;;;;;;;;-3.45;100.00;102800.47;2566991;30;137967;-36
2022/02/12 05:22:25;;;;;;;;;;;;;;;-3.45;100.00;102808.47;2568485;30;139111;-36
2022/02/12 05:24:52;;;;;;;;;;;;;;;-3.44;100.00;102801.34;2569287;30;136924;-36
2022/02/12 05:27:20;;;;;;;;;;;;;;;-3.43;100.00;102789.72;2568509;30;138191;-36
2022/02/12 05:29:48;;;;;;;;;;;;;;;-3.48;100.00;102784.59;2568410;30;137862;-36
2022/02/12 05:32:16;;;;;;;;;;;;;;;-3.50;100.00;102786.47;2569114;30;138491;-36
2022/02/12 05:34:44;;;;;;;;;;;;;;;-3.45;100.00;102784.44;2568802;30;137231;-36
2022/02/12 05:37:12;;;;;;;;;;;;;;;-3.41;100.00;102780.72;2568309;30;137329;-36
2022/02/12 05:39:40;;;;;;;;;;;;;;;-3.39;100.00;102784.19;2568265;30;137906;-36
2022/02/12 05:42:07;;;;;;;;;;;;;;;-3.34;100.00;102778.59;2566652;30;138825;-36
2022/02/12 05:44:35;;;;;;;;;;;;;;;-3.32;100.00;102774.06;2567644;30;137062;-36
2022/02/12 05:47:03;;;;;;;;;;;;;;;-3.21;100.00;102768.19;2569640;30;138423;-36
2022/02/12 05:49:31;;;;;;;;;;;;;;;-3.23;100.00;102762.94;2567938;30;137273;-36
2022/02/12 05:52:01;;;;;;;;;;;;;;;-3.21;100.00;102757.53;2567343;30;138298;-36
2022/02/12 05:54:29;;;;;;;;;;;;;;;-3.26;100.00;102751.53;2568287;30;137028;-36
2022/02/12 05:56:57;;;;;;;;;;;;;;;-3.22;100.00;102750.44;2568946;30;138547;-36
2022/02/12 05:59:24;;;;;;;;;;;;;;;-3.23;100.00;102748.72;2568357;30;137860;-36
2022/02/12 06:01:52;;;;;;;;;;;;;;;-3.29;100.00;102741.91;2569186;30;137410;-36
2022/02/12 06:04:20;;;;;;;;;;;;;;;-3.28;100.00;102754.31;2569398;30;136670;-36
2022/02/12 06:06:48;;;;;;;;;;;;;;;-3.28;100.00;102753.44;2569070;30;137633;-36
2022/02/12 06:09:16;;;;;;;;;;;;;;;-3.23;100.00;102759.41;2568691;30;136959;-36
2022/02/12 06:11:44;;;;;;;;;;;;;;;-3.27;100.00;102756.03;2567455;30;137093;-36
2022/02/12 06:14:11;;;;;;;;;;;;;;;-3.28;100.00;102754.31;2567727;30;137839;-36
2022/02/12 06:16:40;;;;;;;;;;;;;;;-3.25;100.00;102742.59;2568028;30;138113;-36
2022/02/12 06:19:08;;;;;;;;;;;;;;;-3.25;100.00;102750.59;2568851;30;136992;-36
2022/02/12 06:21:35;;;;;;;;;;;;;;;-3.29;100.00;102743.69;2568760;30;138960;-36
2022/02/12 06:24:03;;;;;;;;;;;;;;;-3.30;100.00;102748.19;2569231;30;137972;-36
2022/02/12 06:26:31;;;;;;;;;;;;;;;-3.32;100.00;102750.91;2567811;30;139355;-36
2022/02/12 06:28:59;;;;;;;;;;;;;;;-3.33;100.00;102746.50;2569044;30;136664;-36
2022/02/12 06:31:27;;;;;;;;;;;;;;;-3.32;100.00;102747.34;2568471;30;138334;-36
2022/02/12 06:33:54;;;;;;;;;;;;;;;-3.34;100.00;102744.78;2568371;30;138405;-36
2022/02/12 06:36:22;;;;;;;;;;;;;;;-3.36;100.00;102740.44;2568047;30;138472;-36
2022/02/12 06:38:50;;;;;;;;;;;;;;;-3.32;100.00;102736.69;2567024;30;137734;-36
2022/02/12 06:41:18;;;;;;;;;;;;;;;-3.24;100.00;102742.53;2568152;30;136751;-36
2022/02/12 06:43:46;;;;;;;;;;;;;;;-3.21;100.00;102741.50;2567269;30;137902;-36
2022/02/12 06:46:14;;;;;;;;;;;;;;;-3.19;100.00;102727.16;2567292;30;139235;-36
2022/02/12 06:48:42;;;;;;;;;;;;;;;-3.12;100.00;102722.38;2567362;30;138154;-36
2022/02/12 06:51:09;;;;;;;;;;;;;;;-3.07;100.00;102732.81;2567775;30;139124;-36
2022/02/12 06:53:37;;;;;;;;;;;;;;;-3.01;100.00;102718.28;2568030;30;138115;-36
2022/02/12 06:56:05;;;;;;;;;;;;;;;-2.87;100.00;102715.81;2567881;30;138518;-36
2022/02/12 06:58:36;;;;;;;;;;;;;;;-2.90;100.00;102718.63;2568342;30;136824;-36
2022/02/12 07:01:05;;;;;;;;;;;;;;;-2.89;100.00;102720.38;2568601;30;138567;-36
2022/02/12 07:03:33;;;;;;;;;;;;;;;-2.91;100.00;102720.44;2569201;30;137075;-36
2022/02/12 07:06:01;;;;;;;;;;;;;;;-2.87;100.00;102718.47;2568294;30;137955;-36
2022/02/12 07:08:28;;;;;;;;;;;;;;;-2.76;100.00;102717.94;2568113;30;137264;-36
2022/02/12 07:10:56;;;;;;;;;;;;;;;-2.77;100.00;102717.06;2569069;30;138243;-36
2022/02/12 07:13:24;;;;;;;;;;;;;;;-2.67;100.00;102725.47;2566500;30;138343;-36
2022/02/12 07:15:51;;;;;;;;;;;;;;;-2.61;100.00;102727.81;2569253;30;138468;-36
2022/02/12 07:18:19;;;;;;;;;;;;;;;-2.58;100.00;102726.81;2568282;30;136816;-36
2022/02/12 07:20:47;;;;;;;;;;;;;;;-2.58;100.00;102723.25;2568281;30;139146;-36
2022/02/12 07:23:15;;;;;;;;;;;;;;;-2.57;100.00;102722.31;2568599;30;137061;-36
2022/02/12 07:25:43;;;;;;;;;;;;;;;-2.56;100.00;102719.56;2568422;30;137470;-36
2022/02/12 07:28:11;;;;;;;;;;;;;;;-2.51;100.00;102717.53;2566998;30;137923;-36
2022/02/12 07:30:41;;;;;;;;;;;;;;;-2.44;100.00;102719.88;2566274;30;138227;-36
2022/02/12 07:33:10;;;;;;;;;;;;;;;-2.35;100.00;102720.25;2568706;30;136926;-36
2022/02/12 07:35:38;;;;;;;;;;;;;;;-2.22;100.00;102717.78;2568542;30;137943;-36
2022/02/12 07:38:06;;;;;;;;;;;;;;;-2.15;100.00;102717.44;2568438;30;137219;-36
2022/02/12 07:40:34;;;;;;;;;;;;;;;-2.08;100.00;102724.22;2568742;30;137388;-36
2022/02/12 07:43:02;;;;;;;;;;;;;;;-1.98;100.00;102721.91;2569072;30;138555;-39
2022/02/12 07:45:29;;;;;;;;;;;;;;;-1.99;100.00;102712.13;2567999;30;136833;-42
2022/02/12 07:47:58;;;;;;;;;;;;;;;-1.98;100.00;102720.09;2567000;30;136776;-41
2022/02/12 07:50:25;;;;;;;;;;;;;;;-1.88;100.00;102713.28;2568670;30;138413;-42
2022/02/12 07:52:53;;;;;;;;;;;;;;;-1.87;100.00;102711.47;2567848;30;137798;-42
2022/02/12 07:55:21;;;;;;;;;;;;;;;-1.83;100.00;102706.84;2568476;30;136951;-42
2022/02/12 07:57:49;;;;;;;;;;;;;;;-1.76;100.00;102716.25;2566355;30;138269;-41
2022/02/12 08:00:17;;;;;;;;;;;;;;;-1.68;100.00;102708.63;2568314;30;137361;-42
2022/02/12 08:02:45;;;;;;;;;;;;;;;-1.61;100.00;102699.31;2568304;30;137275;-41
2022/02/12 08:05:13;;;;;;;;;;;;;;;-1.58;100.00;102702.78;2568034;30;138576;-42
2022/02/12 08:07:41;;;;;;;;;;;;;;;-1.56;100.00;102701.72;2567204;30;137958;-42
2022/02/12 08:13:01;;;;;;;;;;;;;;;-1.43;100.00;102704.59;2566619;30;137289;-42
2022/02/12 08:15:29;;;;;;;;;;;;;;;-1.42;100.00;102692.91;2569198;30;138915;-41
2022/02/12 08:17:57;;;;;;;;;;;;;;;-1.36;100.00;102686.34;2570180;30;136996;-41
2022/02/12 08:20:25;;;;;;;;;;;;;;;-1.34;100.00;102693.34;2568383;30;138138;-41
2022/02/12 08:22:53;;;;;;;;;;;;;;;-1.33;100.00;102689.72;2568571;30;137943;-41
2022/02/12 08:25:20;;;;;;;;;;;;;;;-1.31;100.00;102682.47;2569122;30;138507;-41
2022/02/12 08:27:48;;;;;;;;;;;;;;;-1.29;100.00;102684.19;2567383;30;137305;-40
2022/02/12 08:30:16;;;;;;;;;;;;;;;-1.20;100.00;102689.00;2568815;30;138492;-42
2022/02/12 08:32:44;;;;;;;;;;;;;;;-1.12;100.00;102676.03;2569406;30;137181;-41
2022/02/12 08:35:14;;;;;;;;;;;;;;;-1.07;100.00;102679.28;2568436;30;137340;-41
2022/02/12 08:37:43;;;;;;;;;;;;;;;-0.96;100.00;102677.81;2567444;30;137020;-42
2022/02/12 08:40:18;;;;;;;;;;;;;;;-0.93;100.00;102682.97;2569130;30;137322;-41
2022/02/12 08:42:48;;;;;;;;;;;;;;;-0.90;100.00;102677.44;2566741;30;136757;-41
2022/02/12 08:45:17;;;;;;;;;;;;;;;-0.90;100.00;102674.75;2567468;30;139125;-42
2022/02/12 08:47:45;;;;;;;;;;;;;;;-0.84;100.00;102669.03;2568340;30;137782;-42
2022/02/12 08:50:14;;;;;;;;;;;;;;;-0.76;100.00;102676.59;2568847;30;138897;-41
2022/02/12 08:52:43;;;;;;;;;;;;;;;-0.75;100.00;102671.16;2568437;30;139051;-41
2022/02/12 08:55:11;;;;;;;;;;;;;;;-0.66;100.00;102666.19;2568781;30;139039;-41
2022/02/12 08:57:40;;;;;;;;;;;;;;;-0.64;100.00;102659.78;2568737;30;136994;-41
2022/02/12 09:00:09;;;;;;;;;;;;;;;-0.59;100.00;102675.56;2568824;30;138196;-41
2022/02/12 09:02:54;;;;;;;;;;;;;;;-0.54;100.00;102665.44;2569378;30;137104;-41
2022/02/12 09:05:22;;;;;;;;;;;;;;;-0.53;100.00;102666.31;2568939;30;138693;-41
2022/02/12 09:07:50;;;;;;;;;;;;;;;-0.41;100.00;102670.06;2568740;30;137367;-41
2022/02/12 09:10:17;;;;;;;;;;;;;;;-0.44;100.00;102660.38;2568239;30;139245;-41
2022/02/12 09:12:45;;;;;;;;;;;;;;;-0.38;100.00;102660.00;2567774;30;137030;-41
2022/02/12 09:15:13;;;;;;;;;;;;;;;-0.27;100.00;102662.00;2567776;30;139181;-41
2022/02/12 09:17:41;;;;;;;;;;;;;;;-0.15;100.00;102655.00;2567337;30;138014;-41
2022/02/12 09:20:09;;;;;;;;;;;;;;;-0.10;100.00;102649.34;2569310;30;138484;-41
2022/02/12 09:22:36;;;;;;;;;;;;;;;0.00;100.00;102650.50;2569873;30;137216;-41
2022/02/12 09:25:06;;;;;;;;;;;;;;;0.06;99.35;102646.53;2570006;30;137204;-41
2022/02/12 09:27:35;;;;;;;;;;;;;;;0.13;98.44;102651.44;2566116;30;136880;-41
2022/02/12 09:30:04;;;;;;;;;;;;;;;0.22;98.83;102649.09;2568280;30;139177;-41
2022/02/12 09:32:32;;;;;;;;;;;;;;;0.33;98.20;102643.91;2568063;30;136862;-41
2022/02/12 09:35:00;;;;;;;;;;;;;;;0.42;97.41;102637.94;2567529;30;137434;-41
2022/02/12 09:37:28;;;;;;;;;;;;;;;0.47;98.31;102634.06;2568098;30;137038;-41
2022/02/12 09:39:55;;;;;;;;;;;;;;;0.58;98.02;102631.56;2569998;30;137460;-40
2022/02/12 09:42:23;;;;;;;;;;;;;;;0.64;98.38;102636.50;2567868;30;137151;-41
2022/02/12 09:44:51;;;;;;;;;;;;;;;0.74;96.66;102631.38;2567610;30;138800;-41
2022/02/12 09:47:27;;;;;;;;;;;;;;;0.84;96.77;102629.78;2568582;30;136948;-41
2022/02/12 09:49:56;;;;;;;;;;;;;;;0.94;97.14;102621.97;2566046;30;138932;-41
2022/02/12 09:52:28;;;;;;;;;;;;;;;1.07;97.43;102624.66;2568978;30;137398;-41
2022/02/12 09:54:55;;;;;;;;;;;;;;;1.13;97.73;102610.78;2568028;30;138580;-41
2022/02/12 09:57:23;;;;;;;;;;;;;;;1.23;96.57;102620.94;2569601;30;136730;-41
2022/02/12 09:59:58;;;;;;;;;;;;;;;1.31;94.83;102610.50;2569126;30;138944;-41
2022/02/12 10:02:26;;;;;;;;;;;;;;;1.39;95.66;102600.03;2567388;30;137173;-41
2022/02/12 10:05:13;;;;;;;;;;;;;;;1.44;94.25;102607.78;2568493;30;139441;-41
2022/02/12 10:07:40;;;;;;;;;;;;;;;1.47;94.91;102599.50;2569055;30;137118;-41
2022/02/12 10:10:12;;;;;;;;;;;;;;;1.52;94.16;102597.34;2567992;30;137413;-41
2022/02/12 10:12:40;;;;;;;;;;;;;;;1.54;92.30;102599.94;2569018;30;136939;-41
2022/02/12 10:15:24;;;;;;;;;;;;;;;1.57;92.99;102597.03;2568182;30;136965;-41
2022/02/12 10:17:59;;;;;;;;;;;;;;;1.57;92.99;102591.66;2568764;30;136906;-41
2022/02/12 10:20:29;;;;;;;;;;;;;;;1.63;92.99;102585.81;2568291;30;138983;-42
2022/02/12 10:23:03;;;;;;;;;;;;;;;1.65;92.20;102594.63;2567961;30;137066;-41
2022/02/12 10:25:31;;;;;;;;;;;;;;;1.68;92.67;102578.28;2568031;30;138565;-42
2022/02/12 10:27:59;;;;;;;;;;;;;;;1.74;90.87;102576.13;2566509;30;136820;-41
2022/02/12 10:30:28;;;;;;;;;;;;;;;1.83;90.76;102578.16;2568266;30;139206;-41
2022/02/12 10:33:01;;;;;;;;;;;;;;;1.93;90.16;102571.09;2568385;30;136710;-41
2022/02/12 10:35:30;;;;;;;;;;;;;;;1.97;89.13;102563.66;2568489;30;137331;-41
2022/02/12 10:37:59;;;;;;;;;;;;;;;2.04;89.61;102561.38;2564930;30;137336;-41
2022/02/12 10:40:27;;;;;;;;;;;;;;;2.13;89.32;102566.09;2569090;30;136856;-41
2022/02/12 10:42:55;;;;;;;;;;;;;;;2.27;89.07;102563.25;2568196;30;137297;-41
2022/02/12 10:45:25;;;;;;;;;;;;;;;2.40;88.77;102562.31;2567528;30;138310;-41
2022/02/12 10:47:54;;;;;;;;;;;;;;;2.55;88.23;102552.19;2567903;30;137094;-41
2022/02/12 10:50:27;;;;;;;;;;;;;;;2.79;86.97;102556.69;2568622;30;138317;-41
2022/02/12 10:52:56;;;;;;;;;;;;;;;2.95;87.17;102540.16;2567563;30;137216;-41
2022/02/12 10:55:41;;;;;;;;;;;;;;;3.05;83.72;102548.41;2568146;30;138953;-41
2022/02/12 10:58:12;;;;;;;;;;;;;;;3.16;83.24;102533.09;2566461;30;137316;-41
2022/02/12 11:00:40;;;;;;;;;;;;;;;3.27;82.58;102529.53;2569313;30;137017;-41
2022/02/12 11:03:10;;;;;;;;;;;;;;;3.41;81.15;102522.16;2567165;30;136981;-41
2022/02/12 11:05:40;;;;;;;;;;;;;;;3.55;81.90;102521.03;2569187;30;137250;-41
2022/02/12 11:08:09;;;;;;;;;;;;;;;3.65;80.77;102513.94;2568222;30;138805;-42
2022/02/12 11:10:37;;;;;;;;;;;;;;;3.74;80.40;102515.03;2569189;30;136638;-41
2022/02/12 11:13:06;;;;;;;;;;;;;;;3.88;80.20;102503.09;2567880;30;136891;-41
2022/02/12 11:15:35;;;;;;;;;;;;;;;4.01;79.31;102505.63;2566829;30;138915;-41
2022/02/12 11:18:11;;;;;;;;;;;;;;;4.11;79.64;102497.59;2568366;30;136970;-41
2022/02/12 11:20:41;;;;;;;;;;;;;;;4.18;78.02;102488.00;2568901;30;138188;-41
2022/02/12 11:23:21;;;;;;;;;;;;;;;4.26;77.64;102487.38;2568017;30;137119;-41
2022/02/12 11:25:49;;;;;;;;;;;;;;;4.29;77.00;102476.28;2568531;30;138183;-41
2022/02/12 11:28:17;;;;;;;;;;;;;;;4.33;76.22;102475.03;2567979;30;137204;-41
2022/02/12 11:30:45;;;;;;;;;;;;;;;4.43;76.44;102467.84;2568297;30;138332;-42
2022/02/12 11:33:16;;;;;;;;;;;;;;;4.49;73.50;102465.59;2568435;30;136807;-41
2022/02/12 11:35:44;;;;;;;;;;;;;;;4.59;74.10;102461.13;2568664;30;137537;-41
2022/02/12 11:38:50;;;;;;;;;;;;;;;4.65;72.63;102457.06;2567366;30;136821;-41
2022/02/12 11:41:26;;;;;;;;;;;;;;;4.70;72.42;102455.63;2566587;30;137696;-41
2022/02/12 11:43:56;;;;;;;;;;;;;;;4.73;72.13;102449.97;2566568;30;137183;-41
2022/02/12 11:46:39;;;;;;;;;;;;;;;4.78;71.79;102435.22;2566226;30;138378;-41
2022/02/12 11:49:26;;;;;;;;;;;;;;;4.85;69.21;102431.81;2568686;30;137133;-41
2022/02/12 11:51:57;;;;;;;;;;;;;;;4.95;69.65;102428.31;2567056;30;141020;-41
2022/02/12 11:54:43;;;;;;;;;;;;;;;4.97;68.51;102424.44;2568987;30;137450;-41
2022/02/12 11:57:11;;;;;;;;;;;;;;;4.97;68.26;102420.91;2568272;30;138425;-41
2022/02/12 11:59:38;;;;;;;;;;;;;;;4.99;68.31;102411.66;2566308;30;137244;-41
2022/02/12 12:02:06;;;;;;;;;;;;;;;5.07;67.07;102412.84;2567435;30;138351;-41
2022/02/12 12:04:36;;;;;;;;;;;;;;;5.14;67.20;102405.88;2568174;30;137014;-41
2022/02/12 12:07:05;;;;;;;;;;;;;;;5.23;66.10;102396.06;2568856;30;138448;-41
2022/02/12 12:09:34;;;;;;;;;;;;;;;5.27;64.32;102392.94;2565008;30;137250;-41
2022/02/12 12:12:10;;;;;;;;;;;;;;;5.35;65.35;102388.69;2567906;30;138510;-41
2022/02/12 12:14:39;;;;;;;;;;;;;;;5.38;62.59;102383.84;2567838;30;137453;-41
2022/02/12 12:17:07;;;;;;;;;;;;;;;5.41;62.94;102375.44;2567368;30;138404;-40
2022/02/12 12:19:39;;;;;;;;;;;;;;;5.45;64.20;102376.03;2568790;30;136770;-41
2022/02/12 12:22:09;;;;;;;;;;;;;;;5.54;64.00;102379.75;2568159;30;138168;-41
2022/02/12 12:24:38;;;;;;;;;;;;;;;5.56;62.45;102370.47;2567629;30;137038;-41
2022/02/12 12:27:06;;;;;;;;;;;;;;;5.56;62.82;102365.03;2568145;30;137167;-41
2022/02/12 12:32:22;;;;;;;;;;;;;;;5.59;62.75;102351.25;2568335;30;138122;-41
2022/02/12 12:34:51;;;;;;;;;;;;;;;5.67;62.90;102349.69;2568978;30;137100;-41
2022/02/12 12:37:21;;;;;;;;;;;;;;;5.78;60.93;102349.53;2568801;30;138129;-40
2022/02/12 12:39:50;;;;;;;;;;;;;;;5.78;60.08;102349.53;2567802;30;137241;-41
2022/02/12 12:42:19;;;;;;;;;;;;;;;5.76;61.45;102346.97;2567874;30;138422;-41